Terminal Aerodrome Forecast
Issued by NWS Nashville, TN

Home | Current Version | Previous Version | Text Only | Print | Product List | Glossary On
Versions: 1 2 3 4 5 6 7 8 9 10 11 12 13 14 15
339
FTUS44 KOHX 222320
TAFBNA
TAF
KBNA 222320Z 2300/2324 VRB04KT P6SM SCT050
     FM231000 00000KT 4SM BR BCFG SKC
     FM231400 08006KT P6SM SKC=

USA.gov is the U.S. government's official web portal to all federal, state and local government web resources and services.